Time,TemperatureF,DewpointF,PressureIn,WindDirection,WindDirectionDegrees,WindSpeedMPH,WindSpeedGustMPH,Humidity,HourlyPrecipIn,Conditions,Clouds,dailyrainin,SolarRadiationWatts/m^2,SoftwareType,DateUTC
2013-03-29 00:09:00,43.5,33.0,30.08,NNW,347,3.0,-999.0,67,-99.99,,,0.00,0,weatherlink.com 1.10,2013-03-29 04:09:00,
2013-03-29 00:24:00,43.4,33.0,30.08,NNW,342,2.0,-999.0,67,-99.99,,,0.00,0,weatherlink.com 1.10,2013-03-29 04:24:00,
2013-03-29 00:39:00,43.1,33.0,30.08,NNW,342,0.0,-999.0,68,-99.99,,,0.00,0,weatherlink.com 1.10,2013-03-29 04:39:00,
2013-03-29 00:54:00,43.0,33.0,30.08,NNW,342,0.0,-999.0,68,-99.99,,,0.00,0,weatherlink.com 1.10,2013-03-29 04:54:00,
2013-03-29 01:09:00,42.5,33.0,30.08,NNW,342,0.0,-999.0,70,-99.99,,,0.00,0,weatherlink.com 1.10,2013-03-29 05:09:00,
2013-03-29 01:24:00,41.7,33.0,30.08,NNW,342,0.0,-999.0,72,-99.99,,,0.00,0,weatherlink.com 1.10,2013-03-29 05:24:00,
2013-03-29 01:39:00,41.9,33.0,30.09,NNW,342,0.0,-999.0,72,-99.99,,,0.00,0,weatherlink.com 1.10,2013-03-29 05:39:00,
2013-03-29 01:54:00,42.0,33.0,30.09,NNW,342,0.0,-999.0,71,-99.99,,,0.00,0,weatherlink.com 1.10,2013-03-29 05:54:00,
2013-03-29 02:09:00,41.9,33.0,30.09,NNW,342,0.0,-999.0,71,-99.99,,,0.00,0,weatherlink.com 1.10,2013-03-29 06:09:00,
2013-03-29 02:24:00,41.9,33.0,30.09,NNW,342,0.0,-999.0,71,-99.99,,,0.00,0,weatherlink.com 1.10,2013-03-29 06:24:00,
2013-03-29 02:39:00,41.5,33.0,30.09,NNW,342,0.0,-999.0,71,-99.99,,,0.00,0,weatherlink.com 1.10,2013-03-29 06:39:00,
2013-03-29 02:54:00,40.5,32.0,30.09,NNW,342,0.0,-999.0,72,-99.99,,,0.00,0,weatherlink.com 1.10,2013-03-29 06:54:00,
2013-03-29 03:09:00,39.6,32.0,30.09,NNW,342,0.0,-999.0,74,-99.99,,,0.00,0,weatherlink.com 1.10,2013-03-29 07:09:00,
2013-03-29 03:24:00,38.6,32.0,30.09,NNW,342,0.0,-999.0,76,-99.99,,,0.00,0,weatherlink.com 1.10,2013-03-29 07:24:00,
2013-03-29 03:39:00,37.5,31.0,30.09,NNW,342,0.0,-999.0,78,-99.99,,,0.00,0,weatherlink.com 1.10,2013-03-29 07:39:00,
2013-03-29 03:54:00,36.6,31.0,30.09,NNW,342,0.0,-999.0,81,-99.99,,,0.00,0,weatherlink.com 1.10,2013-03-29 07:54:00,
2013-03-29 04:09:00,36.5,31.0,30.09,NNW,342,0.0,-999.0,81,-99.99,,,0.00,0,weatherlink.com 1.10,2013-03-29 08:09:00,
2013-03-29 04:24:00,36.4,31.0,30.09,NNW,342,0.0,-999.0,81,-99.99,,,0.00,0,weatherlink.com 1.10,2013-03-29 08:24:00,
2013-03-29 04:39:00,35.4,30.0,30.09,NNW,342,0.0,-999.0,81,-99.99,,,0.00,0,weatherlink.com 1.10,2013-03-29 08:39:00,
2013-03-29 04:54:00,35.0,30.0,30.09,NNW,342,0.0,-999.0,82,-99.99,,,0.00,0,weatherlink.com 1.10,2013-03-29 08:54:00,
2013-03-29 05:09:00,34.2,30.0,30.09,NNW,342,0.0,-999.0,83,-99.99,,,0.00,0,weatherlink.com 1.10,2013-03-29 09:09:00,
2013-03-29 05:24:00,33.7,29.0,30.09,NNW,342,0.0,-999.0,83,-99.99,,,0.00,0,weatherlink.com 1.10,2013-03-29 09:24:00,
2013-03-29 05:39:00,32.9,29.0,30.09,NNW,342,0.0,-999.0,84,-99.99,,,0.00,0,weatherlink.com 1.10,2013-03-29 09:39:00,
2013-03-29 05:54:00,32.6,29.0,30.09,NNW,342,0.0,-999.0,85,-99.99,,,0.00,0,weatherlink.com 1.10,2013-03-29 09:54:00,
2013-03-29 06:09:00,32.5,29.0,30.09,NNW,342,0.0,-999.0,85,-99.99,,,0.00,0,weatherlink.com 1.10,2013-03-29 10:09:00,
2013-03-29 06:24:00,32.3,29.0,30.09,NNW,342,0.0,-999.0,86,-99.99,,,0.00,0,weatherlink.com 1.10,2013-03-29 10:24:00,
2013-03-29 06:39:00,31.9,28.0,30.09,NNW,342,0.0,-999.0,86,-99.99,,,0.00,0,weatherlink.com 1.10,2013-03-29 10:39:00,
2013-03-29 06:54:00,31.4,28.0,30.09,NNW,342,0.0,-999.0,87,-99.99,,,0.00,9,weatherlink.com 1.10,2013-03-29 10:54:00,
2013-03-29 07:09:00,31.1,28.0,30.09,NNW,342,0.0,-999.0,88,-99.99,,,0.00,18,weatherlink.com 1.10,2013-03-29 11:09:00,
2013-03-29 07:24:00,32.1,29.0,30.09,NNW,342,0.0,-999.0,89,-99.99,,,0.00,60,weatherlink.com 1.10,2013-03-29 11:24:00,
2013-03-29 07:39:00,34.6,31.0,30.10,NNW,342,0.0,-999.0,86,-99.99,,,0.00,105,weatherlink.com 1.10,2013-03-29 11:39:00,
2013-03-29 07:54:00,36.4,32.0,30.10,NNW,342,0.0,-999.0,83,-99.99,,,0.00,153,weatherlink.com 1.10,2013-03-29 11:54:00,
2013-03-29 08:09:00,38.0,32.0,30.10,NNW,342,0.0,-999.0,80,-99.99,,,0.00,216,weatherlink.com 1.10,2013-03-29 12:09:00,
2013-03-29 08:24:00,41.5,33.0,30.11,NNW,342,0.0,-999.0,71,-99.99,,,0.00,271,weatherlink.com 1.10,2013-03-29 12:24:00,
2013-03-29 08:39:00,43.3,33.0,30.11,NNW,342,0.0,-999.0,67,-99.99,,,0.00,320,weatherlink.com 1.10,2013-03-29 12:39:00,
2013-03-29 08:54:00,43.4,32.0,30.11,NNW,336,2.0,-999.0,64,-99.99,,,0.00,367,weatherlink.com 1.10,2013-03-29 12:54:00,
2013-03-29 09:09:00,44.0,32.0,30.11,NW,315,4.0,-999.0,62,-99.99,,,0.00,417,weatherlink.com 1.10,2013-03-29 13:09:00,
2013-03-29 09:24:00,44.1,31.0,30.10,NNW,329,2.0,-999.0,60,-99.99,,,0.00,462,weatherlink.com 1.10,2013-03-29 13:24:00,
2013-03-29 09:39:00,44.7,31.0,30.10,WNW,292,6.0,-999.0,59,-99.99,,,0.00,506,weatherlink.com 1.10,2013-03-29 13:39:00,
2013-03-29 09:54:00,45.6,32.0,30.10,North,5,3.0,-999.0,59,-99.99,,,0.00,550,weatherlink.com 1.10,2013-03-29 13:54:00,
2013-03-29 10:09:00,46.1,32.0,30.10,North,5,0.0,-999.0,58,-99.99,,,0.00,587,weatherlink.com 1.10,2013-03-29 14:09:00,
2013-03-29 10:24:00,46.4,33.0,30.10,NNE,16,6.0,-999.0,59,-99.99,,,0.00,626,weatherlink.com 1.10,2013-03-29 14:24:00,
2013-03-29 10:39:00,46.7,31.0,30.10,NW,317,6.0,-999.0,55,-99.99,,,0.00,659,weatherlink.com 1.10,2013-03-29 14:39:00,
2013-03-29 10:54:00,47.3,31.0,30.10,East,82,2.0,-999.0,54,-99.99,,,0.00,691,weatherlink.com 1.10,2013-03-29 14:54:00,
2013-03-29 11:09:00,48.7,32.0,30.09,ENE,61,3.0,-999.0,52,-99.99,,,0.00,722,weatherlink.com 1.10,2013-03-29 15:09:00,
2013-03-29 11:24:00,49.8,32.0,30.09,NW,308,1.0,-999.0,50,-99.99,,,0.00,751,weatherlink.com 1.10,2013-03-29 15:24:00,
2013-03-29 11:39:00,49.4,31.0,30.09,WSW,256,2.0,-999.0,50,-99.99,,,0.00,772,weatherlink.com 1.10,2013-03-29 15:39:00,
2013-03-29 11:54:00,49.6,31.0,30.08,NNW,327,2.0,-999.0,49,-99.99,,,0.00,796,weatherlink.com 1.10,2013-03-29 15:54:00,
2013-03-29 12:09:00,50.4,31.0,30.07,North,10,4.0,-999.0,47,-99.99,,,0.00,881,weatherlink.com 1.10,2013-03-29 16:09:00,
2013-03-29 12:24:00,50.5,30.0,30.07,NW,306,4.0,-999.0,45,-99.99,,,0.00,1046,weatherlink.com 1.10,2013-03-29 16:24:00,
2013-03-29 12:39:00,50.6,30.0,30.07,North,9,0.0,-999.0,46,-99.99,,,0.00,320,weatherlink.com 1.10,2013-03-29 16:39:00,
2013-03-29 12:54:00,51.2,30.0,30.06,NW,317,7.0,-999.0,44,-99.99,,,0.00,346,weatherlink.com 1.10,2013-03-29 16:54:00,
2013-03-29 13:09:00,51.2,29.0,30.06,West,272,4.0,-999.0,43,-99.99,,,0.00,272,weatherlink.com 1.10,2013-03-29 17:09:00,
2013-03-29 13:24:00,51.0,28.0,30.05,WNW,283,8.0,-999.0,42,-99.99,,,0.00,387,weatherlink.com 1.10,2013-03-29 17:24:00,
2013-03-29 13:39:00,51.6,29.0,30.05,WNW,286,5.0,-999.0,42,-99.99,,,0.00,345,weatherlink.com 1.10,2013-03-29 17:39:00,
2013-03-29 13:54:00,51.0,29.0,30.04,NNW,340,3.0,-999.0,43,-99.99,,,0.00,267,weatherlink.com 1.10,2013-03-29 17:54:00,
2013-03-29 14:09:00,51.3,29.0,30.04,WNW,289,5.0,-999.0,43,-99.99,,,0.00,323,weatherlink.com 1.10,2013-03-29 18:09:00,
2013-03-29 14:24:00,52.1,30.0,30.03,WNW,299,1.0,-999.0,43,-99.99,,,0.00,338,weatherlink.com 1.10,2013-03-29 18:24:00,
2013-03-29 14:39:00,51.7,29.0,30.02,WNW,283,1.0,-999.0,42,-99.99,,,0.00,309,weatherlink.com 1.10,2013-03-29 18:39:00,
2013-03-29 14:54:00,51.3,29.0,30.02,WNW,285,0.0,-999.0,42,-99.99,,,0.00,248,weatherlink.com 1.10,2013-03-29 18:54:00,
2013-03-29 15:09:00,51.7,28.0,30.02,NW,325,4.0,-999.0,41,-99.99,,,0.00,181,weatherlink.com 1.10,2013-03-29 19:09:00,
2013-03-29 15:24:00,51.3,29.0,30.02,WNW,298,2.0,-999.0,42,-99.99,,,0.00,169,weatherlink.com 1.10,2013-03-29 19:24:00,
2013-03-29 15:39:00,51.4,29.0,30.02,NW,304,7.0,-999.0,42,-99.99,,,0.00,229,weatherlink.com 1.10,2013-03-29 19:39:00,
2013-03-29 15:54:00,51.0,29.0,30.02,WNW,299,0.0,-999.0,43,-99.99,,,0.00,134,weatherlink.com 1.10,2013-03-29 19:54:00,
2013-03-29 16:09:00,50.8,29.0,30.02,North,360,3.0,-999.0,43,-99.99,,,0.00,109,weatherlink.com 1.10,2013-03-29 20:09:00,
2013-03-29 16:24:00,50.6,29.0,30.02,WSW,238,3.0,-999.0,43,-99.99,,,0.00,104,weatherlink.com 1.10,2013-03-29 20:24:00,
2013-03-29 16:39:00,50.6,29.0,30.02,NW,320,5.0,-999.0,43,-99.99,,,0.00,91,weatherlink.com 1.10,2013-03-29 20:39:00,
2013-03-29 16:54:00,50.3,28.0,30.02,SW,227,3.0,-999.0,43,-99.99,,,0.00,105,weatherlink.com 1.10,2013-03-29 20:54:00,
2013-03-29 17:09:00,49.8,28.0,30.03,West,279,4.0,-999.0,44,-99.99,,,0.00,95,weatherlink.com 1.10,2013-03-29 21:09:00,
2013-03-29 17:24:00,49.0,28.0,30.03,NNE,30,7.0,-999.0,45,-99.99,,,0.00,84,weatherlink.com 1.10,2013-03-29 21:24:00,
2013-03-29 17:39:00,48.3,29.0,30.04,NNW,337,7.0,-999.0,47,-99.99,,,0.00,69,weatherlink.com 1.10,2013-03-29 21:39:00,
2013-03-29 17:54:00,48.1,29.0,30.04,North,5,4.0,-999.0,47,-99.99,,,0.00,56,weatherlink.com 1.10,2013-03-29 21:54:00,
2013-03-29 18:09:00,47.8,29.0,30.05,NNW,339,4.0,-999.0,48,-99.99,,,0.00,39,weatherlink.com 1.10,2013-03-29 22:09:00,
2013-03-29 18:24:00,47.6,29.0,30.05,NNW,338,5.0,-999.0,48,-99.99,,,0.00,37,weatherlink.com 1.10,2013-03-29 22:24:00,
2013-03-29 18:39:00,47.1,29.0,30.05,NW,322,2.0,-999.0,49,-99.99,,,0.00,21,weatherlink.com 1.10,2013-03-29 22:39:00,
2013-03-29 18:54:00,46.8,29.0,30.05,NW,321,3.0,-999.0,51,-99.99,,,0.00,7,weatherlink.com 1.10,2013-03-29 22:54:00,
2013-03-29 19:09:00,46.5,29.0,30.06,NNW,343,2.0,-999.0,51,-99.99,,,0.00,0,weatherlink.com 1.10,2013-03-29 23:09:00,
2013-03-29 19:24:00,46.3,29.0,30.06,WNW,293,2.0,-999.0,52,-99.99,,,0.00,0,weatherlink.com 1.10,2013-03-29 23:24:00,
2013-03-29 19:39:00,46.1,30.0,30.06,WNW,294,4.0,-999.0,53,-99.99,,,0.00,0,weatherlink.com 1.10,2013-03-29 23:39:00,
2013-03-29 19:54:00,45.9,30.0,30.06,North,9,0.0,-999.0,54,-99.99,,,0.00,0,weatherlink.com 1.10,2013-03-29 23:54:00,
2013-03-29 20:09:00,45.8,30.0,30.06,NW,311,0.0,-999.0,54,-99.99,,,0.00,0,weatherlink.com 1.10,2013-03-30 00:09:00,
2013-03-29 20:24:00,45.5,29.0,30.07,NW,324,4.0,-999.0,53,-99.99,,,0.00,0,weatherlink.com 1.10,2013-03-30 00:24:00,
2013-03-29 20:39:00,45.0,29.0,30.07,North,360,1.0,-999.0,54,-99.99,,,0.00,0,weatherlink.com 1.10,2013-03-30 00:39:00,
2013-03-29 20:54:00,44.5,29.0,30.07,NNE,15,2.0,-999.0,55,-99.99,,,0.00,0,weatherlink.com 1.10,2013-03-30 00:54:00,
2013-03-29 21:09:00,44.2,29.0,30.08,NNE,15,0.0,-999.0,56,-99.99,,,0.00,0,weatherlink.com 1.10,2013-03-30 01:09:00,
2013-03-29 21:24:00,44.0,29.0,30.08,NNE,15,0.0,-999.0,57,-99.99,,,0.00,0,weatherlink.com 1.10,2013-03-30 01:24:00,
2013-03-29 21:39:00,43.7,29.0,30.08,NNE,15,0.0,-999.0,57,-99.99,,,0.00,0,weatherlink.com 1.10,2013-03-30 01:39:00,
2013-03-29 21:54:00,43.3,29.0,30.09,NNE,15,0.0,-999.0,58,-99.99,,,0.00,0,weatherlink.com 1.10,2013-03-30 01:54:00,
2013-03-29 22:09:00,43.1,30.0,30.09,NNE,15,1.0,-999.0,60,-99.99,,,0.00,0,weatherlink.com 1.10,2013-03-30 02:09:00,
2013-03-29 22:24:00,43.0,30.0,30.09,WNW,287,1.0,-999.0,61,-99.99,,,0.00,0,weatherlink.com 1.10,2013-03-30 02:24:00,
2013-03-29 22:39:00,42.8,30.0,30.09,WNW,288,2.0,-999.0,62,-99.99,,,0.00,0,weatherlink.com 1.10,2013-03-30 02:39:00,
2013-03-29 22:54:00,42.5,30.0,30.09,WNW,288,0.0,-999.0,62,-99.99,,,0.00,0,weatherlink.com 1.10,2013-03-30 02:54:00,
2013-03-29 23:09:00,42.3,30.0,30.09,WNW,288,0.0,-999.0,63,-99.99,,,0.00,0,weatherlink.com 1.10,2013-03-30 03:09:00,
2013-03-29 23:24:00,41.8,31.0,30.09,WNW,288,0.0,-999.0,65,-99.99,,,0.00,0,weatherlink.com 1.10,2013-03-30 03:24:00,
2013-03-29 23:39:00,40.7,30.0,30.09,WNW,288,0.0,-999.0,67,-99.99,,,0.00,0,weatherlink.com 1.10,2013-03-30 03:39:00,
2013-03-29 23:54:00,38.9,30.0,30.09,WNW,288,0.0,-999.0,70,-99.99,,,0.00,0,weatherlink.com 1.10,2013-03-30 03:54:00,